Hansa Limburg — A8IH6 — position and weather

sailwx.info

Track history (hours):
 
Tides and Currents Weather Stations Pressure Air Temp Water Temp Dewpoint Dewpoint Depression Visibility Wind Speed Wind Dir Waves Ship Positions

Hansa Limburg

Last reported at 2016-Aug-25 00:33 UTC. Time now 2016-Aug-25 01:03 UTC.
Position N 54°23' E 018°43'.

Length 175.5 m; beam 27.4 m; draft 10.9 m.

Type: Ship (hazmat cat A). MMSI: 636090980.

Date/timePositionNaut miles runAvg speedWind from/ knotsBaromVisibWave heightAir tempDewpointWater temp
2016-Aug-25 00:33N 54°23' E 018°43'0 0.0
2016-Aug-24 23:33N 54°23' E 018°43'0 0.0
2016-Aug-24 22:33N 54°23' E 018°43'0 0.0
2016-Aug-24 21:33N 54°23' E 018°43'0 0.0
2016-Aug-24 20:33N 54°23' E 018°43'0 0.0
2016-Aug-24 19:33N 54°23' E 018°43'0 0.0
2016-Aug-24 18:32N 54°23' E 018°43'0 0.0
2016-Aug-24 17:32N 54°23' E 018°43'0 0.0
2016-Aug-24 16:31N 54°23' E 018°43'0 0.0
2016-Aug-24 15:31N 54°23' E 018°43'0 0.0
2016-Aug-24 14:31N 54°23' E 018°43'0 0.0
2016-Aug-24 13:31N 54°23' E 018°43'0 0.5
2016-Aug-24 12:33N 54°24' E 018°43'6 5.6
2016-Aug-24 11:33N 54°27' E 018°51'0 0.0
2016-Aug-24 10:33N 54°27' E 018°51'0 0.0
2016-Aug-24 09:33N 54°27' E 018°51'0 0.0
2016-Aug-24 08:33N 54°27' E 018°51'0 0.0
2016-Aug-24 07:31N 54°27' E 018°51'0 0.0
2016-Aug-24 06:31N 54°27' E 018°51'0 0.0
2016-Aug-24 04:32N 54°27' E 018°51'0 0.0
2016-Aug-24 03:32N 54°27' E 018°51'0 0.0
2016-Aug-24 02:33N 54°27' E 018°51'0 0.0
2016-Aug-24 01:33N 54°27' E 018°51'0 0.0
2016-Aug-24 00:31N 54°27' E 018°51'0 0.0
2016-Aug-23 23:33N 54°27' E 018°51'0 0.1
2016-Aug-23 22:33N 54°27' E 018°51'8 8.4
2016-Aug-23 21:34N 54°33' E 019°02'1211.8
2016-Aug-23 20:34N 54°45' E 019°03'1212.4
2016-Aug-23 19:34N 54°57' E 019°02'1212.4
2016-Aug-23 18:33N 55°10' E 019°02'  
2016-Aug-21 04:33N 59°16' E 021°54'1313.1
2016-Aug-21 03:32N 59°24' E 022°14'1313.2
2016-Aug-21 02:33N 59°32' E 022°35'1413.4
2016-Aug-21 01:33N 59°35' E 023°00'1313.5
2016-Aug-21 00:33N 59°39' E 023°26'1413.9
2016-Aug-20 23:33N 59°43' E 023°52'1413.6
2016-Aug-20 22:33N 59°47' E 024°18'1313.4
2016-Aug-20 21:34N 59°50' E 024°44'3313.5
2016-Aug-20 19:08N 59°56' E 025°48'813.1
2016-Aug-20 18:33N 60°00' E 026°01'1313.2
2016-Aug-20 17:33N 60°09' E 026°20'1414.0
2016-Aug-20 16:33N 60°20' E 026°37'10 9.5
2016-Aug-20 15:31N 60°25' E 026°54'0 0.0
2016-Aug-20 14:31N 60°25' E 026°54'0 0.0
2016-Aug-20 13:31N 60°25' E 026°54'0 0.0
2016-Aug-20 12:31N 60°25' E 026°54'0 0.0
2016-Aug-20 11:31N 60°25' E 026°54'0 0.0
2016-Aug-20 10:31N 60°25' E 026°54'0 0.0
2016-Aug-20 09:31N 60°25' E 026°54'0 0.0
2016-Aug-20 08:31N 60°25' E 026°54'0 0.0
2016-Aug-20 07:31N 60°25' E 026°54'0 0.0
2016-Aug-20 06:33N 60°25' E 026°54'3 3.5
2016-Aug-20 05:33N 60°23' E 026°49'1514.9
2016-Aug-20 04:33N 60°14' E 026°25'1414.0
2016-Aug-20 03:34N 60°01' E 026°35'1919.3
2016-Aug-20 02:34N 60°03' E 027°14'2019.6
2016-Aug-20 01:33N 60°12' E 027°49'2019.8
2016-Aug-20 00:33N 60°05' E 028°25'1212.0
2016-Aug-19 23:33N 59°53' E 028°30'1211.7
2016-Aug-19 22:33N 59°41' E 028°25'1 0.9
2016-Aug-19 21:26N 59°41' E 028°24'0 0.0
2016-Aug-19 20:31N 59°41' E 028°24'0 0.1
2016-Aug-19 19:28N 59°40' E 028°24'0 0.0
2016-Aug-19 18:27N 59°40' E 028°24'0 0.0
2016-Aug-19 17:27N 59°40' E 028°24'0 0.0
2016-Aug-19 16:29N 59°40' E 028°24'0 0.0
2016-Aug-19 15:32N 59°40' E 028°24'0 0.0
2016-Aug-19 14:32N 59°40' E 028°24'0 0.0
2016-Aug-19 13:32N 59°40' E 028°24'0 0.0
2016-Aug-19 12:32N 59°40' E 028°24'0 0.0
2016-Aug-19 11:32N 59°40' E 028°24'0 0.1
2016-Aug-19 10:33N 59°41' E 028°24'0 0.0
2016-Aug-19 09:31N 59°41' E 028°24'0 0.0
2016-Aug-19 08:24N 59°41' E 028°24'0 0.0
2016-Aug-19 07:27N 59°41' E 028°24'0 0.1
2016-Aug-19 06:31N 59°40' E 028°24'0 0.0
2016-Aug-19 05:31N 59°40' E 028°24'0 0.0
2016-Aug-19 04:31N 59°40' E 028°24'0 0.0
2016-Aug-19 03:22N 59°40' E 028°24'0 0.1
2016-Aug-19 02:29N 59°41' E 028°24'0 0.0
2016-Aug-19 01:31N 59°41' E 028°24'0 0.0
2016-Aug-19 00:33N 59°41' E 028°24'0 0.0
2016-Aug-18 23:33N 59°41' E 028°24'4 3.9
2016-Aug-18 22:33N 59°44' E 028°24'1312.6
2016-Aug-18 21:33N 59°56' E 028°34'1111.4
2016-Aug-18 20:33N 60°05' E 028°20'1716.5
2016-Aug-18 19:33N 60°11' E 027°49'1817.8
2016-Aug-18 18:33N 60°02' E 027°18'1616.5
2016-Aug-18 17:33N 59°59' E 026°46'2317.0
2016-Aug-18 16:11N 59°53' E 026°01'1117.3
2016-Aug-18 15:33N 59°51' E 025°39'3517.3
2016-Aug-18 13:33N 59°45' E 024°32'2017.8
2016-Aug-18 12:27N 59°39' E 023°55'31316.5
2016-Aug-17 17:30N 55°08' E 019°03'1515.7
2016-Aug-17 16:33N 54°53' E 019°05'1616.0
2016-Aug-17 15:33N 54°37' E 019°07'1515.2
2016-Aug-17 14:33N 54°25' E 018°50'5 4.7
2016-Aug-17 13:32N 54°23' E 018°43'0 0.0
2016-Aug-17 12:31N 54°23' E 018°43'0 0.0
2016-Aug-17 11:31N 54°23' E 018°43'0 0.0
2016-Aug-17 10:31N 54°23' E 018°43'0 0.0
2016-Aug-17 09:31N 54°23' E 018°43'0 0.0
2016-Aug-17 08:33N 54°23' E 018°43'0 0.0
2016-Aug-17 07:32N 54°23' E 018°43'0 0.0
2016-Aug-17 06:31N 54°23' E 018°43'0 0.0
2016-Aug-17 05:32N 54°23' E 018°43'0 0.0
2016-Aug-17 04:32N 54°23' E 018°43'0 0.0
2016-Aug-17 03:32N 54°23' E 018°43'0 0.0
2016-Aug-17 02:32N 54°23' E 018°43'0 0.0
2016-Aug-17 01:32N 54°23' E 018°43'0 0.0
2016-Aug-17 00:33N 54°23' E 018°43'0 0.0
2016-Aug-16 23:31N 54°23' E 018°43'0 0.0
2016-Aug-16 22:31N 54°23' E 018°43'0 0.0
2016-Aug-16 21:31N 54°23' E 018°43'0 0.0
2016-Aug-16 20:32N 54°23' E 018°43'0 0.0
2016-Aug-16 19:33N 54°23' E 018°43'0 0.0
2016-Aug-16 18:32N 54°23' E 018°43'0 0.0
2016-Aug-16 17:32N 54°23' E 018°43'0 0.0
2016-Aug-16 16:32N 54°23' E 018°43'0 0.0
2016-Aug-16 15:32N 54°23' E 018°43'0 0.0
2016-Aug-16 14:31N 54°23' E 018°43'0 0.0
2016-Aug-16 13:31N 54°23' E 018°43'0 0.0
2016-Aug-16 12:31N 54°23' E 018°43'0 0.0
2016-Aug-16 11:31N 54°23' E 018°43'0 0.0
2016-Aug-16 10:31N 54°23' E 018°43'0 0.0
2016-Aug-16 09:31N 54°23' E 018°43'0 0.0
2016-Aug-16 08:33N 54°23' E 018°43'0 0.0
2016-Aug-16 07:33N 54°23' E 018°43'5 1.6
2016-Aug-16 04:33N 54°26' E 018°50'0 0.0
2016-Aug-16 03:33N 54°26' E 018°50'0 0.0
2016-Aug-16 02:33N 54°26' E 018°50'0 0.0
2016-Aug-16 01:32N 54°26' E 018°50'0 0.0
2016-Aug-16 00:34N 54°26' E 018°50'0 0.0
2016-Aug-15 23:32N 54°26' E 018°50'0 0.0
2016-Aug-15 22:32N 54°26' E 018°50'0 0.0
2016-Aug-15 21:32N 54°26' E 018°50'0 0.0
2016-Aug-15 20:33N 54°26' E 018°50'0 0.0
2016-Aug-15 19:33N 54°26' E 018°50'0 0.0
2016-Aug-15 18:33N 54°26' E 018°50'0 0.0
2016-Aug-15 17:33N 54°26' E 018°50'0 0.0
2016-Aug-15 16:33N 54°26' E 018°50'0 0.0
2016-Aug-15 15:33N 54°26' E 018°50'0 0.0
2016-Aug-15 14:31N 54°26' E 018°50'0 0.0
2016-Aug-15 13:31N 54°26' E 018°50'0 0.0
2016-Aug-15 12:33N 54°26' E 018°50'0 0.0
2016-Aug-15 11:31N 54°26' E 018°50'0 0.0
2016-Aug-15 10:32N 54°26' E 018°50'0 0.0
2016-Aug-15 09:33N 54°26' E 018°50'0 0.0
2016-Aug-15 08:32N 54°26' E 018°50'0 0.0
2016-Aug-15 07:33N 54°26' E 018°50'0 0.0
2016-Aug-15 06:33N 54°26' E 018°50'0 0.0
2016-Aug-15 04:31N 54°26' E 018°50'0 0.0
2016-Aug-15 03:31N 54°26' E 018°50'0 0.0
2016-Aug-15 02:31N 54°26' E 018°50'0 0.0
2016-Aug-15 01:31N 54°26' E 018°50'0 0.1
2016-Aug-15 00:34N 54°26' E 018°50'  
Track history (hours):
 
Tides and Currents Weather Stations Pressure Air Temp Water Temp Dewpoint Dewpoint Depression Visibility Wind Speed Wind Dir Waves Ship Positions

Hansa Limburg

Last reported at 2016-Aug-25 00:33 UTC. Time now 2016-Aug-25 01:03 UTC.
Position N 54°23' E 018°43'.

Length 175.5 m; beam 27.4 m; draft 10.9 m.

Type: Ship (hazmat cat A). MMSI: 636090980.

Date/timePositionNaut miles runAvg speedWind from/ knotsBaromVisibWave heightAir tempDewpointWater temp
2016-Aug-25 00:33N 54°23' E 018°43'0 0.0
2016-Aug-24 23:33N 54°23' E 018°43'0 0.0
2016-Aug-24 22:33N 54°23' E 018°43'0 0.0
2016-Aug-24 21:33N 54°23' E 018°43'0 0.0
2016-Aug-24 20:33N 54°23' E 018°43'0 0.0
2016-Aug-24 19:33N 54°23' E 018°43'0 0.0
2016-Aug-24 18:32N 54°23' E 018°43'0 0.0
2016-Aug-24 17:32N 54°23' E 018°43'0 0.0
2016-Aug-24 16:31N 54°23' E 018°43'0 0.0
2016-Aug-24 15:31N 54°23' E 018°43'0 0.0
2016-Aug-24 14:31N 54°23' E 018°43'0 0.0
2016-Aug-24 13:31N 54°23' E 018°43'0 0.5
2016-Aug-24 12:33N 54°24' E 018°43'6 5.6
2016-Aug-24 11:33N 54°27' E 018°51'0 0.0
2016-Aug-24 10:33N 54°27' E 018°51'0 0.0
2016-Aug-24 09:33N 54°27' E 018°51'0 0.0
2016-Aug-24 08:33N 54°27' E 018°51'0 0.0
2016-Aug-24 07:31N 54°27' E 018°51'0 0.0
2016-Aug-24 06:31N 54°27' E 018°51'0 0.0
2016-Aug-24 04:32N 54°27' E 018°51'0 0.0
2016-Aug-24 03:32N 54°27' E 018°51'0 0.0
2016-Aug-24 02:33N 54°27' E 018°51'0 0.0
2016-Aug-24 01:33N 54°27' E 018°51'0 0.0
2016-Aug-24 00:31N 54°27' E 018°51'0 0.0
2016-Aug-23 23:33N 54°27' E 018°51'0 0.1
2016-Aug-23 22:33N 54°27' E 018°51'8 8.4
2016-Aug-23 21:34N 54°33' E 019°02'1211.8
2016-Aug-23 20:34N 54°45' E 019°03'1212.4
2016-Aug-23 19:34N 54°57' E 019°02'1212.4
2016-Aug-23 18:33N 55°10' E 019°02'  
2016-Aug-21 04:33N 59°16' E 021°54'1313.1
2016-Aug-21 03:32N 59°24' E 022°14'1313.2
2016-Aug-21 02:33N 59°32' E 022°35'1413.4
2016-Aug-21 01:33N 59°35' E 023°00'1313.5
2016-Aug-21 00:33N 59°39' E 023°26'1413.9
2016-Aug-20 23:33N 59°43' E 023°52'1413.6
2016-Aug-20 22:33N 59°47' E 024°18'1313.4
2016-Aug-20 21:34N 59°50' E 024°44'3313.5
2016-Aug-20 19:08N 59°56' E 025°48'813.1
2016-Aug-20 18:33N 60°00' E 026°01'1313.2
2016-Aug-20 17:33N 60°09' E 026°20'1414.0
2016-Aug-20 16:33N 60°20' E 026°37'10 9.5
2016-Aug-20 15:31N 60°25' E 026°54'0 0.0
2016-Aug-20 14:31N 60°25' E 026°54'0 0.0
2016-Aug-20 13:31N 60°25' E 026°54'0 0.0
2016-Aug-20 12:31N 60°25' E 026°54'0 0.0
2016-Aug-20 11:31N 60°25' E 026°54'0 0.0
2016-Aug-20 10:31N 60°25' E 026°54'0 0.0
2016-Aug-20 09:31N 60°25' E 026°54'0 0.0
2016-Aug-20 08:31N 60°25' E 026°54'0 0.0
2016-Aug-20 07:31N 60°25' E 026°54'0 0.0
2016-Aug-20 06:33N 60°25' E 026°54'3 3.5
2016-Aug-20 05:33N 60°23' E 026°49'1514.9
2016-Aug-20 04:33N 60°14' E 026°25'1414.0
2016-Aug-20 03:34N 60°01' E 026°35'1919.3
2016-Aug-20 02:34N 60°03' E 027°14'2019.6
2016-Aug-20 01:33N 60°12' E 027°49'2019.8
2016-Aug-20 00:33N 60°05' E 028°25'1212.0
2016-Aug-19 23:33N 59°53' E 028°30'1211.7
2016-Aug-19 22:33N 59°41' E 028°25'1 0.9
2016-Aug-19 21:26N 59°41' E 028°24'0 0.0
2016-Aug-19 20:31N 59°41' E 028°24'0 0.1
2016-Aug-19 19:28N 59°40' E 028°24'0 0.0
2016-Aug-19 18:27N 59°40' E 028°24'0 0.0
2016-Aug-19 17:27N 59°40' E 028°24'0 0.0
2016-Aug-19 16:29N 59°40' E 028°24'0 0.0
2016-Aug-19 15:32N 59°40' E 028°24'0 0.0
2016-Aug-19 14:32N 59°40' E 028°24'0 0.0
2016-Aug-19 13:32N 59°40' E 028°24'0 0.0
2016-Aug-19 12:32N 59°40' E 028°24'0 0.0
2016-Aug-19 11:32N 59°40' E 028°24'0 0.1
2016-Aug-19 10:33N 59°41' E 028°24'0 0.0
2016-Aug-19 09:31N 59°41' E 028°24'0 0.0
2016-Aug-19 08:24N 59°41' E 028°24'0 0.0
2016-Aug-19 07:27N 59°41' E 028°24'0 0.1
2016-Aug-19 06:31N 59°40' E 028°24'0 0.0
2016-Aug-19 05:31N 59°40' E 028°24'0 0.0
2016-Aug-19 04:31N 59°40' E 028°24'0 0.0
2016-Aug-19 03:22N 59°40' E 028°24'0 0.1
2016-Aug-19 02:29N 59°41' E 028°24'0 0.0
2016-Aug-19 01:31N 59°41' E 028°24'0 0.0
2016-Aug-19 00:33N 59°41' E 028°24'0 0.0
2016-Aug-18 23:33N 59°41' E 028°24'4 3.9
2016-Aug-18 22:33N 59°44' E 028°24'1312.6
2016-Aug-18 21:33N 59°56' E 028°34'1111.4
2016-Aug-18 20:33N 60°05' E 028°20'1716.5
2016-Aug-18 19:33N 60°11' E 027°49'1817.8
2016-Aug-18 18:33N 60°02' E 027°18'1616.5
2016-Aug-18 17:33N 59°59' E 026°46'2317.0
2016-Aug-18 16:11N 59°53' E 026°01'1117.3
2016-Aug-18 15:33N 59°51' E 025°39'3517.3
2016-Aug-18 13:33N 59°45' E 024°32'2017.8
2016-Aug-18 12:27N 59°39' E 023°55'31316.5
2016-Aug-17 17:30N 55°08' E 019°03'1515.7
2016-Aug-17 16:33N 54°53' E 019°05'1616.0
2016-Aug-17 15:33N 54°37' E 019°07'1515.2
2016-Aug-17 14:33N 54°25' E 018°50'5 4.7
2016-Aug-17 13:32N 54°23' E 018°43'0 0.0
2016-Aug-17 12:31N 54°23' E 018°43'0 0.0
2016-Aug-17 11:31N 54°23' E 018°43'0 0.0
2016-Aug-17 10:31N 54°23' E 018°43'0 0.0
2016-Aug-17 09:31N 54°23' E 018°43'0 0.0
2016-Aug-17 08:33N 54°23' E 018°43'0 0.0
2016-Aug-17 07:32N 54°23' E 018°43'0 0.0
2016-Aug-17 06:31N 54°23' E 018°43'0 0.0
2016-Aug-17 05:32N 54°23' E 018°43'0 0.0
2016-Aug-17 04:32N 54°23' E 018°43'0 0.0
2016-Aug-17 03:32N 54°23' E 018°43'0 0.0
2016-Aug-17 02:32N 54°23' E 018°43'0 0.0
2016-Aug-17 01:32N 54°23' E 018°43'0 0.0
2016-Aug-17 00:33N 54°23' E 018°43'0 0.0
2016-Aug-16 23:31N 54°23' E 018°43'0 0.0
2016-Aug-16 22:31N 54°23' E 018°43'0 0.0
2016-Aug-16 21:31N 54°23' E 018°43'0 0.0
2016-Aug-16 20:32N 54°23' E 018°43'0 0.0
2016-Aug-16 19:33N 54°23' E 018°43'0 0.0
2016-Aug-16 18:32N 54°23' E 018°43'0 0.0
2016-Aug-16 17:32N 54°23' E 018°43'0 0.0
2016-Aug-16 16:32N 54°23' E 018°43'0 0.0
2016-Aug-16 15:32N 54°23' E 018°43'0 0.0
2016-Aug-16 14:31N 54°23' E 018°43'0 0.0
2016-Aug-16 13:31N 54°23' E 018°43'0 0.0
2016-Aug-16 12:31N 54°23' E 018°43'0 0.0
2016-Aug-16 11:31N 54°23' E 018°43'0 0.0
2016-Aug-16 10:31N 54°23' E 018°43'0 0.0
2016-Aug-16 09:31N 54°23' E 018°43'0 0.0
2016-Aug-16 08:33N 54°23' E 018°43'0 0.0
2016-Aug-16 07:33N 54°23' E 018°43'5 1.6
2016-Aug-16 04:33N 54°26' E 018°50'0 0.0
2016-Aug-16 03:33N 54°26' E 018°50'0 0.0
2016-Aug-16 02:33N 54°26' E 018°50'0 0.0
2016-Aug-16 01:32N 54°26' E 018°50'0 0.0
2016-Aug-16 00:34N 54°26' E 018°50'0 0.0
2016-Aug-15 23:32N 54°26' E 018°50'0 0.0
2016-Aug-15 22:32N 54°26' E 018°50'0 0.0
2016-Aug-15 21:32N 54°26' E 018°50'0 0.0
2016-Aug-15 20:33N 54°26' E 018°50'0 0.0
2016-Aug-15 19:33N 54°26' E 018°50'0 0.0
2016-Aug-15 18:33N 54°26' E 018°50'0 0.0
2016-Aug-15 17:33N 54°26' E 018°50'0 0.0
2016-Aug-15 16:33N 54°26' E 018°50'0 0.0
2016-Aug-15 15:33N 54°26' E 018°50'0 0.0
2016-Aug-15 14:31N 54°26' E 018°50'0 0.0
2016-Aug-15 13:31N 54°26' E 018°50'0 0.0
2016-Aug-15 12:33N 54°26' E 018°50'0 0.0
2016-Aug-15 11:31N 54°26' E 018°50'0 0.0
2016-Aug-15 10:32N 54°26' E 018°50'0 0.0
2016-Aug-15 09:33N 54°26' E 018°50'0 0.0
2016-Aug-15 08:32N 54°26' E 018°50'0 0.0
2016-Aug-15 07:33N 54°26' E 018°50'0 0.0
2016-Aug-15 06:33N 54°26' E 018°50'0 0.0
2016-Aug-15 04:31N 54°26' E 018°50'0 0.0
2016-Aug-15 03:31N 54°26' E 018°50'0 0.0
2016-Aug-15 02:31N 54°26' E 018°50'0 0.0
2016-Aug-15 01:31N 54°26' E 018°50'0 0.1
2016-Aug-15 00:34N 54°26' E 018°50'  

Dump ship's entire track history